Terminal Aerodrome Forecast
Issued by NWS

Home | Current Version | Previous Version | Text Only | Print | Product List | Glossary On
Versions: 1 2 3 4 5 6 7 8 9 10 11 12 13 14 15 16 17 18 19 20 21 22 23
000
FTUS46 KEKA 222327
TAFCEC
TAF
KCEC 222327Z 2300/2324 22008KT P6SM SKC
     FM230200 17005KT P6SM SKC
     FM230800 16004KT 4SM BR BKN005
     FM231200 00000KT 1SM BR OVC003
     FM231700 VRB03KT 2SM BR BKN005=

USA.gov is the U.S. government's official web portal to all federal, state and local government web resources and services.